Time;durP1;ratioP1;P1;durP2;ratioP2;P2;SDS_P1;SDS_P2;PMS_P1;PMS_P2;Temp;Humidity;BMP_temperature;BMP_pressure;BME280_temperature;BME280_humidity;BME280_pressure;Samples;Min_cycle;Max_cycle;Signal;HPM_P1;HPM_P2
2022/05/26 00:01:05;;;;;;;2.00;1.30;;;14.10;55.20;;;13.02;58.46;98280.59;5125463;27;20563;-73
2022/05/26 00:03:32;;;;;;;2.20;1.40;;;14.10;55.10;;;13.12;58.04;98280.09;5090266;28;20535;-74
2022/05/26 00:06:00;;;;;;;1.97;1.37;;;14.10;54.80;;;13.03;57.90;98272.25;5084047;28;20954;-74
2022/05/26 00:08:28;;;;;;;2.20;1.40;;;14.20;54.90;;;13.02;58.17;98276.00;5069807;28;20453;-77
2022/05/26 00:10:56;;;;;;;2.33;1.50;;;14.00;54.90;;;12.97;58.63;98273.16;5081506;28;20453;-80
2022/05/26 00:13:24;;;;;;;1.40;1.30;;;14.00;55.10;;;12.99;58.46;98281.88;5081981;28;20554;-75
2022/05/26 00:15:53;;;;;;;1.43;1.33;;;14.00;55.10;;;12.92;58.72;98289.25;5104572;28;20503;-79
2022/05/26 00:18:21;;;;;;;1.50;1.40;;;13.90;55.20;;;13.01;58.12;98285.19;5088934;28;20464;-76
2022/05/26 00:20:48;;;;;;;2.40;1.27;;;13.90;55.10;;;12.96;57.98;98289.63;5090227;28;20600;-78
2022/05/26 00:23:15;;;;;;;2.70;1.07;;;13.90;55.10;;;12.92;58.39;98289.25;5089191;28;21004;-77
2022/05/26 00:25:43;;;;;;;1.27;1.17;;;13.90;55.20;;;12.87;59.15;98289.91;5088723;28;20451;-74
2022/05/26 00:28:10;;;;;;;2.40;1.33;;;13.90;55.40;;;12.91;58.92;98287.59;5090528;28;20459;-75
2022/05/26 00:30:38;;;;;;;3.17;1.20;;;13.90;55.90;;;12.91;59.37;98292.19;5085539;28;20859;-75
2022/05/26 00:33:08;;;;;;;1.30;1.20;;;13.90;55.70;;;12.88;58.61;98286.16;5085731;28;20477;-74
2022/05/26 00:35:36;;;;;;;3.00;1.43;;;13.80;55.50;;;12.90;58.52;98277.81;5083770;28;20499;-75
2022/05/26 00:38:05;;;;;;;1.10;0.97;;;14.00;55.70;;;12.85;59.16;98286.59;5094830;28;20461;-75
2022/05/26 00:40:33;;;;;;;1.27;1.17;;;13.90;55.70;;;12.78;59.29;98285.84;5077069;28;20477;-75
2022/05/26 00:43:00;;;;;;;1.60;1.20;;;13.80;55.90;;;12.92;60.14;98297.38;5083950;28;20528;-75
2022/05/26 00:45:36;;;;;;;2.20;1.40;;;13.80;56.00;;;12.85;58.70;98291.22;5088576;28;20465;-75
2022/05/26 00:48:11;;;;;;;1.70;1.37;;;13.80;55.90;;;12.74;60.17;98290.88;5075914;28;20451;-74
2022/05/26 00:50:47;;;;;;;1.70;1.47;;;13.80;56.20;;;12.75;59.73;98303.38;5074120;28;20541;-76
2022/05/26 00:53:21;;;;;;;1.37;1.27;;;13.80;56.10;;;12.71;59.84;98291.34;5085189;28;20989;-77
2022/05/26 00:55:54;;;;;;;2.93;1.40;;;13.70;56.10;;;12.37;60.31;98242.03;5079275;28;20577;-74
2022/05/26 00:58:28;;;;;;;4.47;1.20;;;13.70;56.50;;;12.71;60.10;98293.19;5080052;28;21019;-74
2022/05/26 01:00:58;;;;;;;1.20;1.10;;;13.70;56.60;;;12.77;60.00;98284.19;5094073;28;20557;-78
2022/05/26 01:03:32;;;;;;;4.80;1.10;;;13.80;56.70;;;12.77;59.80;98283.34;5100956;28;20460;-77
2022/05/26 01:06:04;;;;;;;2.00;1.50;;;13.70;56.40;;;12.83;59.82;98285.19;5082446;28;20547;-75
2022/05/26 01:08:37;;;;;;;2.23;1.40;;;13.80;56.50;;;12.87;59.61;98287.19;5085720;28;20452;-75
2022/05/26 01:11:05;;;;;;;2.10;1.10;;;13.90;56.50;;;12.86;59.48;98282.03;5075983;28;20464;-75
2022/05/26 01:13:33;;;;;;;2.47;1.40;;;13.90;56.50;;;13.03;59.09;98282.25;5082998;28;20630;-75
2022/05/26 01:16:06;;;;;;;1.50;1.23;;;14.00;56.50;;;12.95;59.07;98285.28;5120019;27;20475;-75
2022/05/26 01:18:47;;;;;;;2.33;1.10;;;14.00;56.50;;;13.07;59.12;98283.47;5089235;28;20540;-75
2022/05/26 01:21:22;;;;;;;4.80;1.23;;;14.00;56.40;;;13.20;58.36;98277.06;5067859;28;20453;-74
2022/05/26 01:24:34;;;;;;;3.53;1.23;;;14.20;56.20;;;13.30;58.04;98285.50;5068035;28;20446;-73
2022/05/26 01:27:29;;;;;;;1.10;1.00;;;14.20;56.10;;;13.36;58.07;98289.22;5076277;28;21170;-74
2022/05/26 01:30:23;;;;;;;1.47;1.20;;;14.20;56.00;;;13.41;58.00;98288.50;5076164;28;20552;-76
2022/05/26 01:33:32;;;;;;;2.17;1.30;;;14.30;56.00;;;13.38;58.04;98289.81;5076969;28;20488;-73
2022/05/26 01:36:27;;;;;;;2.17;1.10;;;14.30;55.80;;;13.40;57.80;98276.00;5091079;28;20507;-73
2022/05/26 01:39:19;;;;;;;1.23;1.13;;;14.40;56.00;;;13.54;57.25;98288.38;5073105;28;20553;-73
2022/05/26 01:42:15;;;;;;;1.30;1.20;;;14.50;55.80;;;13.44;57.19;98271.81;5072215;28;20480;-76
2022/05/26 01:44:54;;;;;;;1.80;1.47;;;14.50;55.70;;;13.54;57.11;98282.94;5076452;28;21052;-74
2022/05/26 01:47:35;;;;;;;1.80;1.10;;;14.50;55.70;;;13.59;56.97;98284.97;5086041;28;20560;-74
2022/05/26 01:50:15;;;;;;;1.13;1.03;;;14.50;55.50;;;13.62;57.03;98275.56;5088476;28;21191;-76
2022/05/26 01:52:55;;;;;;;2.30;1.27;;;14.50;55.60;;;13.59;57.30;98283.09;5102587;28;21043;-77
2022/05/26 01:55:31;;;;;;;3.13;1.23;;;14.50;55.60;;;13.55;57.58;98287.31;5080590;28;20461;-75
2022/05/26 01:58:04;;;;;;;1.20;1.10;;;14.50;55.80;;;13.62;57.36;98279.09;5085970;28;20552;-78
2022/05/26 02:00:32;;;;;;;1.50;1.23;;;14.50;55.60;;;13.63;57.42;98279.94;5083686;28;20471;-76
2022/05/26 02:03:06;;;;;;;2.47;1.07;;;14.60;55.70;;;13.52;57.75;98278.81;5080163;28;20492;-75
2022/05/26 02:05:40;;;;;;;1.23;1.13;;;14.50;56.10;;;13.55;57.87;98273.75;5085288;28;20499;-76
2022/05/26 02:08:13;;;;;;;1.90;1.43;;;14.50;55.80;;;13.59;57.48;98284.97;5090016;28;20466;-78
2022/05/26 02:10:44;;;;;;;1.70;1.20;;;14.50;55.80;;;13.58;57.39;98277.91;5079166;28;20612;-78
2022/05/26 02:13:18;;;;;;;1.97;1.17;;;14.50;55.80;;;13.63;57.31;98285.34;5075271;28;20543;-75
2022/05/26 02:15:49;;;;;;;1.30;1.20;;;14.50;55.70;;;13.59;57.61;98282.25;5085342;28;20463;-75
2022/05/26 02:18:22;;;;;;;1.27;1.00;;;14.60;55.90;;;13.55;57.93;98279.16;5084257;28;21063;-75
2022/05/26 02:20:57;;;;;;;1.63;1.10;;;14.50;56.00;;;13.49;57.93;98280.09;5099321;28;20875;-75
2022/05/26 02:23:31;;;;;;;1.73;1.37;;;14.50;56.40;;;13.37;58.58;98273.75;5097870;28;20878;-75
2022/05/26 02:26:00;;;;;;;1.20;1.10;;;14.50;56.40;;;13.67;57.43;98286.56;5086738;28;21638;-74
2022/05/26 02:28:28;;;;;;;1.20;1.10;;;14.60;56.20;;;13.60;58.03;98284.75;5083425;28;20461;-73
2022/05/26 02:30:55;;;;;;;2.10;1.07;;;14.60;56.30;;;13.61;57.75;98291.00;5080176;28;20458;-78
2022/05/26 02:33:23;;;;;;;2.20;1.20;;;14.60;56.20;;;13.57;58.58;98285.22;5081728;28;20963;-74
2022/05/26 02:35:53;;;;;;;2.50;1.37;;;14.60;56.40;;;13.57;58.14;98279.78;5088169;28;20502;-75
2022/05/26 02:38:26;;;;;;;1.43;1.30;;;14.60;56.30;;;13.69;57.81;98288.00;5096730;28;20495;-72
2022/05/26 02:40:54;;;;;;;5.07;1.27;;;14.60;56.20;;;13.60;58.46;98282.06;5073749;28;20535;-80
2022/05/26 02:43:27;;;;;;;1.30;1.00;;;14.60;56.50;;;13.68;57.96;98280.06;5094059;28;20473;-73
2022/05/26 02:46:06;;;;;;;3.07;1.00;;;14.60;56.40;;;13.75;57.47;98278.09;5082324;28;21255;-78
2022/05/26 02:48:56;;;;;;;1.67;1.20;;;14.70;56.30;;;13.75;57.98;98283.53;5099407;28;20826;-72
2022/05/26 02:51:32;;;;;;;1.50;1.30;;;14.70;56.50;;;13.81;57.45;98281.78;5093935;28;20466;-72
2022/05/26 02:54:09;;;;;;;3.10;1.20;;;14.70;56.30;;;13.79;57.68;98284.72;5083205;28;20477;-72
2022/05/26 02:56:45;;;;;;;3.00;1.03;;;14.70;56.30;;;13.83;57.54;98290.53;5082417;28;20919;-74
2022/05/26 02:59:18;;;;;;;1.10;1.00;;;14.80;56.30;;;13.77;57.76;98284.13;5077877;28;21000;-74
2022/05/26 03:01:53;;;;;;;3.13;1.40;;;14.70;56.20;;;13.80;57.79;98286.38;5081275;28;20466;-75
2022/05/26 03:04:27;;;;;;;1.77;1.17;;;14.70;56.30;;;13.79;57.68;98287.44;5095491;28;20551;-73
2022/05/26 03:07:00;;;;;;;1.77;1.00;;;14.70;56.40;;;13.73;58.10;98277.50;5088822;28;20463;-74
2022/05/26 03:09:27;;;;;;;1.93;1.23;;;14.70;56.40;;;13.67;57.77;98281.13;5090109;28;20490;-75
2022/05/26 03:11:58;;;;;;;1.90;1.23;;;14.70;56.50;;;13.60;58.61;98287.47;5104920;27;20904;-77
2022/05/26 03:14:27;;;;;;;1.30;1.20;;;14.60;56.60;;;13.70;58.39;98291.50;5087184;28;20476;-74
2022/05/26 03:16:54;;;;;;;1.30;0.90;;;14.60;56.60;;;13.62;58.49;98289.13;5076230;28;20544;-75
2022/05/26 03:19:21;;;;;;;2.13;1.50;;;14.60;56.70;;;13.55;58.95;98283.78;5092885;28;21017;-76
2022/05/26 03:21:49;;;;;;;1.37;1.27;;;14.50;57.00;;;13.54;58.80;98285.66;5102763;28;20463;-74
2022/05/26 03:24:18;;;;;;;1.43;1.20;;;14.50;57.00;;;13.42;59.27;98291.00;5107036;28;20449;-76
2022/05/26 03:26:44;;;;;;;1.40;1.20;;;14.40;57.10;;;13.38;59.65;98283.53;5090575;28;20466;-76
2022/05/26 03:29:12;;;;;;;1.90;1.30;;;14.40;57.40;;;13.39;60.03;98286.03;5089898;28;20488;-75
2022/05/26 03:31:39;;;;;;;1.90;1.17;;;14.40;57.50;;;13.28;59.87;98295.78;5081130;28;20539;-75
2022/05/26 03:42:22;;;;;;;4.83;1.27;;;14.40;57.70;;;13.63;59.14;98302.47;5087439;28;20467;-75
2022/05/26 03:44:49;;;;;;;1.40;1.20;;;14.50;57.60;;;13.65;59.36;98302.25;5088753;28;20553;-74
2022/05/26 03:47:16;;;;;;;1.70;1.30;;;14.60;57.60;;;13.63;59.35;98307.06;5089423;28;20536;-74
2022/05/26 03:49:44;;;;;;;1.30;1.20;;;14.60;57.60;;;13.60;59.60;98301.06;5104659;28;20450;-75
2022/05/26 03:52:11;;;;;;;5.63;1.30;;;14.60;57.70;;;13.74;59.04;98304.41;5081962;28;20486;-74
2022/05/26 03:54:39;;;;;;;1.73;1.03;;;14.60;57.60;;;13.80;59.26;98302.66;5075502;28;20548;-78
2022/05/26 03:57:07;;;;;;;1.23;1.17;;;14.70;57.80;;;13.73;59.22;98301.94;5093964;27;20540;-73
2022/05/26 03:59:34;;;;;;;1.60;1.20;;;14.70;57.60;;;13.70;59.22;98307.81;5076779;28;20454;-77
2022/05/26 04:02:02;;;;;;;4.40;1.63;;;14.70;57.50;;;13.70;59.67;98305.09;5090043;28;20968;-74
2022/05/26 04:04:29;;;;;;;1.77;1.40;;;14.60;57.70;;;13.63;59.44;98307.06;5081459;28;20498;-73
2022/05/26 04:06:55;;;;;;;1.60;1.50;;;14.60;57.70;;;13.74;59.31;98309.84;5081707;28;20481;-73
2022/05/26 04:09:25;;;;;;;1.50;1.40;;;14.70;57.70;;;13.73;59.27;98310.09;5080089;28;20463;-78
2022/05/26 04:11:53;;;;;;;1.70;1.10;;;14.70;57.80;;;13.78;59.50;98307.50;5080968;28;20991;-74
2022/05/26 04:14:21;;;;;;;1.80;1.20;;;14.80;57.90;;;13.78;59.34;98321.09;5086871;28;20473;-74
2022/05/26 04:16:48;;;;;;;3.47;1.20;;;14.80;57.70;;;13.74;58.57;98260.16;5078810;28;20521;-74
2022/05/26 04:19:15;;;;;;;1.40;1.30;;;14.90;57.70;;;15.44;54.89;98315.06;5093480;28;20623;-75
2022/05/26 04:24:23;;;;;;;0.90;0.90;;;17.20;55.40;;;16.63;50.79;98324.66;5073049;28;21026;-74
2022/05/26 04:26:52;;;;;;;1.47;1.03;;;17.80;53.80;;;15.70;53.29;98322.94;5087173;28;20880;-74
2022/05/26 04:29:23;;;;;;;1.50;1.40;;;17.20;54.20;;;15.48;54.27;98326.28;5090243;28;20537;-75
2022/05/26 04:31:50;;;;;;;2.27;1.20;;;16.70;54.90;;;15.23;55.42;98340.19;5074748;28;20443;-76
2022/05/26 04:34:18;;;;;;;3.20;1.00;;;16.40;55.50;;;14.90;56.03;98326.09;5082513;28;20481;-77
2022/05/26 04:36:46;;;;;;;1.27;1.17;;;16.10;55.70;;;14.63;56.64;98277.56;5081661;28;20447;-75
2022/05/26 04:39:16;;;;;;;2.40;1.00;;;16.00;56.30;;;14.91;56.87;98325.03;5087133;28;20487;-75
2022/05/26 04:41:43;;;;;;;2.57;1.37;;;15.90;56.70;;;14.67;57.53;98332.31;5100490;28;20538;-75
2022/05/26 04:44:15;;;;;;;1.70;1.27;;;15.80;56.80;;;14.90;56.51;98326.09;5097218;28;20535;-75
2022/05/26 04:46:42;;;;;;;1.93;1.23;;;15.90;56.80;;;14.67;56.84;98327.72;5112180;27;20450;-75
2022/05/26 04:49:10;;;;;;;2.83;1.20;;;15.80;56.60;;;14.94;56.56;98334.63;5099338;27;20882;-74
2022/05/26 04:51:39;;;;;;;2.53;1.33;;;15.90;56.80;;;14.78;57.12;98330.69;5083284;28;20513;-73
2022/05/26 04:54:08;;;;;;;1.77;1.37;;;15.90;56.80;;;14.90;56.09;98298.91;5095835;28;20473;-73
2022/05/26 04:56:35;;;;;;;2.20;1.77;;;16.00;57.00;;;15.18;56.71;98345.53;5076410;28;20553;-76
2022/05/26 04:59:03;;;;;;;1.70;1.30;;;16.20;56.70;;;15.17;56.46;98333.78;5082411;28;20462;-75
2022/05/26 05:01:32;;;;;;;2.37;1.40;;;16.20;56.90;;;15.22;56.09;98339.34;5079721;28;20546;-73
2022/05/26 05:04:00;;;;;;;1.33;1.13;;;16.20;56.70;;;15.33;55.78;98354.03;5080065;28;20568;-74
2022/05/26 05:06:27;;;;;;;1.67;1.03;;;16.20;56.90;;;15.36;55.63;98337.22;5086341;28;20474;-76
2022/05/26 05:08:54;;;;;;;1.40;1.30;;;16.40;56.60;;;15.44;56.04;98353.16;5091770;28;20485;-76
2022/05/26 05:11:22;;;;;;;1.80;1.10;;;16.40;56.60;;;14.87;57.17;98343.75;5077400;28;20809;-75
2022/05/26 05:13:49;;;;;;;1.20;1.10;;;16.10;56.60;;;15.11;56.60;98354.63;5078607;28;20476;-75
2022/05/26 05:16:23;;;;;;;1.17;1.07;;;16.00;57.00;;;14.89;57.84;98357.09;5087572;28;20723;-78
2022/05/26 05:18:51;;;;;;;2.40;1.10;;;16.00;57.20;;;15.13;57.07;98354.41;5080362;28;20546;-76
2022/05/26 05:21:24;;;;;;;1.30;1.20;;;16.10;57.20;;;15.26;57.06;98362.31;5077703;28;20451;-75
2022/05/26 05:23:57;;;;;;;1.50;1.40;;;16.30;57.30;;;15.51;56.17;98363.94;5073586;28;20562;-74
2022/05/26 05:26:26;;;;;;;3.37;1.40;;;16.40;57.20;;;15.97;54.47;98374.16;5073228;28;20537;-70
2022/05/26 05:28:58;;;;;;;1.90;1.70;;;16.80;56.60;;;15.81;55.30;98368.38;5083069;28;20458;-73
2022/05/26 05:31:31;;;;;;;2.47;1.37;;;16.90;56.20;;;17.24;51.79;98367.66;5081172;28;20589;-76
2022/05/26 05:34:06;;;;;;;3.27;1.23;;;17.70;56.10;;;18.69;47.19;98350.19;5084712;28;20470;-78
2022/05/26 05:36:35;;;;;;;2.20;1.40;;;19.60;53.60;;;19.02;46.89;98376.75;5080899;28;20537;-75
2022/05/26 05:39:04;;;;;;;1.27;1.10;;;20.40;52.50;;;19.03;46.92;98368.28;5094046;27;20498;-75
2022/05/26 05:41:34;;;;;;;1.77;1.20;;;20.40;52.30;;;19.53;45.51;98373.50;5075936;28;20564;-78
2022/05/26 05:44:02;;;;;;;3.20;1.30;;;21.00;51.60;;;20.00;44.28;98374.59;5078415;28;20465;-76
2022/05/26 05:46:34;;;;;;;2.90;1.10;;;21.30;51.20;;;19.51;44.96;98382.03;5078344;28;20798;-76
2022/05/26 05:49:05;;;;;;;1.00;0.90;;;21.20;50.70;;;18.42;47.27;98383.03;5076105;28;20460;-77
2022/05/26 05:51:32;;;;;;;1.20;0.90;;;20.40;51.00;;;18.58;47.05;98378.56;5071703;28;21087;-76
2022/05/26 05:54:00;;;;;;;2.60;1.20;;;20.30;51.20;;;18.15;48.97;98388.50;5078170;28;21072;-78
2022/05/26 05:56:27;;;;;;;1.37;1.23;;;20.00;51.70;;;18.48;47.74;98387.47;5077218;28;20481;-75
2022/05/26 05:58:55;;;;;;;1.87;1.00;;;20.20;51.50;;;17.68;49.43;98382.44;5082173;28;20698;-75
2022/05/26 06:01:23;;;;;;;1.13;1.00;;;19.60;51.60;;;17.71;50.27;98398.31;5077776;28;20463;-75
2022/05/26 06:03:50;;;;;;;6.43;1.43;;;19.30;52.60;;;18.01;49.50;98402.53;5079637;28;20456;-76
2022/05/26 06:06:18;;;;;;;1.30;1.20;;;19.40;52.50;;;18.51;48.79;98397.09;5075798;28;20459;-73
2022/05/26 06:08:45;;;;;;;2.83;1.07;;;19.70;52.70;;;19.36;46.49;98409.31;5078554;28;20448;-74
2022/05/26 06:11:12;;;;;;;2.27;0.83;;;20.50;52.00;;;18.84;46.45;98359.59;5078316;28;20476;-76
2022/05/26 06:13:40;;;;;;;2.27;1.43;;;20.60;51.20;;;18.77;47.09;98389.94;5080672;28;20466;-75
2022/05/26 06:16:07;;;;;;;1.80;1.20;;;20.40;51.30;;;18.53;47.58;98398.47;5077839;28;21211;-76
2022/05/26 06:18:34;;;;;;;1.27;1.00;;;20.10;51.30;;;18.15;48.28;98391.25;5083113;28;20543;-75
2022/05/26 06:21:03;;;;;;;1.03;0.77;;;19.80;51.40;;;17.33;50.69;98403.53;5092287;28;20842;-78
2022/05/26 06:23:32;;;;;;;1.63;0.90;;;18.90;52.10;;;16.98;50.96;98397.25;5085380;28;20508;-81
2022/05/26 06:25:59;;;;;;;1.60;1.37;;;18.40;52.60;;;16.50;52.11;98413.06;5079634;28;20466;-78
2022/05/26 06:31:12;;;;;;;1.53;0.93;;;17.60;53.40;;;16.42;52.31;98411.53;5082879;28;20459;-77
2022/05/26 06:39:24;;;;;;;1.00;0.83;;;17.70;53.70;;;16.60;51.68;98423.31;5081977;28;20447;-79
2022/05/26 06:42:07;;;;;;;2.50;1.00;;;17.60;53.60;;;16.56;51.88;98419.44;5085525;28;20479;-78
2022/05/26 06:44:38;;;;;;;2.60;0.90;;;17.60;53.60;;;16.81;52.08;98423.69;5084097;28;20484;-77
2022/05/26 06:47:08;;;;;;;1.10;0.90;;;17.70;53.90;;;16.99;50.68;98415.31;5086782;28;20466;-76
2022/05/26 06:49:36;;;;;;;3.23;0.83;;;18.00;53.30;;;17.26;50.87;98421.97;5083167;28;21014;-75
2022/05/26 06:52:05;;;;;;;2.20;1.20;;;18.10;53.50;;;17.35;51.13;98422.38;5077784;28;20454;-76
2022/05/26 06:54:36;;;;;;;2.67;0.80;;;18.30;53.60;;;17.30;51.02;98433.25;5083083;28;20531;-75
2022/05/26 06:57:05;;;;;;;2.20;0.93;;;18.30;53.60;;;17.56;50.02;98442.63;5101132;28;20459;-75
2022/05/26 06:59:32;;;;;;;3.37;1.27;;;18.50;53.40;;;17.41;50.65;98444.06;5096126;27;20458;-77
2022/05/26 07:01:59;;;;;;;1.90;0.90;;;18.50;53.40;;;17.61;50.75;98442.72;5083005;28;20460;-75
2022/05/26 07:04:27;;;;;;;1.60;1.17;;;18.50;53.70;;;18.01;49.48;98435.34;5081229;28;20470;-76
2022/05/26 07:06:58;;;;;;;2.00;0.80;;;18.80;53.40;;;17.58;49.33;98442.41;5081539;28;20473;-76
2022/05/26 07:09:28;;;;;;;1.20;0.73;;;18.60;52.50;;;17.53;49.58;98444.00;5080438;28;20454;-80
2022/05/26 07:11:58;;;;;;;1.20;0.90;;;18.50;52.70;;;17.93;49.41;98443.97;5082486;28;20466;-78
2022/05/26 07:14:26;;;;;;;6.43;1.00;;;18.70;53.20;;;18.45;48.52;98455.56;5076184;28;20540;-76
2022/05/26 07:16:53;;;;;;;1.17;0.50;;;19.10;52.90;;;18.26;47.99;98447.69;5082520;28;21042;-78
2022/05/26 07:19:21;;;;;;;1.57;0.70;;;19.20;52.00;;;18.00;48.28;98455.56;5082553;28;20500;-75
2022/05/26 07:21:49;;;;;;;1.00;0.50;;;19.10;52.00;;;17.96;48.69;98454.38;5097405;28;20870;-73
2022/05/26 07:24:18;;;;;;;0.70;0.53;;;18.90;52.40;;;18.21;48.54;98455.81;5091537;28;20815;-76
2022/05/26 07:26:46;;;;;;;1.10;0.83;;;19.10;52.50;;;18.36;47.39;98447.81;5084344;28;20467;-80
2022/05/26 07:29:16;;;;;;;2.20;0.80;;;19.30;52.10;;;18.50;47.41;98459.19;5096630;28;20527;-82
2022/05/26 07:31:43;;;;;;;1.73;0.80;;;19.50;52.40;;;18.62;47.02;98456.31;5084220;28;20455;-83
2022/05/26 07:34:11;;;;;;;2.93;0.87;;;19.60;51.90;;;18.76;47.20;98466.84;5083961;28;20483;-82
2022/05/26 07:42:12;;;;;;;2.60;0.70;;;19.80;51.50;;;18.37;47.84;98460.41;5113658;28;20444;-78
2022/05/26 07:44:44;;;;;;;1.50;0.90;;;19.50;51.90;;;18.54;47.90;98473.16;5099903;28;20494;-75
2022/05/26 07:47:12;;;;;;;1.37;1.20;;;19.50;52.10;;;18.97;47.48;98471.41;5106192;28;20440;-76
2022/05/26 07:49:42;;;;;;;1.80;0.90;;;19.80;52.50;;;19.46;46.78;98469.63;5104114;28;20433;-77
2022/05/26 07:52:10;;;;;;;1.17;0.70;;;20.20;52.50;;;19.66;45.38;98468.16;5099015;28;20543;-78
2022/05/26 07:54:38;;;;;;;4.40;0.90;;;20.60;51.60;;;19.94;45.28;98482.56;5084463;28;20481;-81
2022/05/26 07:57:07;;;;;;;3.33;0.87;;;20.80;51.80;;;19.20;45.88;98490.53;5082746;28;20486;-81
2022/05/26 07:59:35;;;;;;;1.07;0.53;;;20.30;51.20;;;18.79;46.51;98478.06;5084516;28;21348;-78
2022/05/26 08:02:04;;;;;;;0.70;0.70;;;19.80;51.50;;;18.91;47.41;98488.88;5102248;28;20446;-77
2022/05/26 08:04:31;;;;;;;1.70;0.80;;;19.80;51.90;;;18.86;46.99;98493.47;5092830;28;20488;-81
2022/05/26 08:06:58;;;;;;;1.80;0.80;;;19.80;51.70;;;19.03;47.69;98479.69;5102824;28;20458;-76
2022/05/26 08:09:25;;;;;;;3.57;1.00;;;19.80;52.30;;;18.98;47.20;98489.50;5106983;28;20452;-78
2022/05/26 08:11:53;;;;;;;1.23;0.90;;;20.00;52.10;;;18.95;47.54;98472.75;5104546;28;20462;-81
2022/05/26 08:14:20;;;;;;;3.23;1.10;;;19.90;52.20;;;19.29;46.56;98490.88;5108645;27;20958;-79
2022/05/26 08:16:47;;;;;;;3.23;0.93;;;20.20;51.90;;;19.46;46.22;98486.09;5084923;28;20474;-78
2022/05/26 08:19:18;;;;;;;1.10;0.70;;;20.30;52.00;;;19.09;47.17;98486.88;5082958;28;20448;-80
2022/05/26 08:21:45;;;;;;;2.50;0.90;;;20.10;52.00;;;19.13;47.45;98498.97;5078504;28;20491;-79
2022/05/26 08:24:12;;;;;;;0.60;0.60;;;20.00;52.30;;;19.41;47.01;98499.75;5088330;28;20520;-78
2022/05/26 08:26:40;;;;;;;0.50;0.50;;;20.20;52.30;;;19.42;46.70;98495.91;5091399;28;20452;-77
2022/05/26 08:29:07;;;;;;;1.10;0.90;;;20.40;52.10;;;19.15;46.90;98501.44;5087984;28;20550;-74
2022/05/26 08:31:34;;;;;;;1.00;0.73;;;20.20;51.90;;;18.85;48.19;98489.91;5082020;28;20546;-78
2022/05/26 08:34:01;;;;;;;1.13;0.83;;;19.90;52.30;;;18.95;47.72;98506.44;5083149;28;20904;-73
2022/05/26 08:36:29;;;;;;;0.60;0.47;;;19.80;52.20;;;19.08;47.46;98507.16;5081067;28;20571;-69
2022/05/26 08:38:57;;;;;;;1.33;0.80;;;19.90;52.40;;;19.35;47.44;98503.56;5082938;28;21127;-79
2022/05/26 08:41:32;;;;;;;0.77;0.53;;;20.10;52.50;;;19.54;47.06;98520.38;5084696;28;20474;-75
2022/05/26 08:44:03;;;;;;;0.50;0.50;;;20.40;52.50;;;18.87;48.49;98523.31;5079497;28;20545;-83
2022/05/26 08:46:40;;;;;;;4.43;1.20;;;20.10;52.50;;;19.08;47.66;98507.16;5084598;28;20450;-80
2022/05/26 08:49:17;;;;;;;3.10;0.70;;;20.00;52.50;;;19.31;47.36;98521.56;5080585;28;20983;-78
2022/05/26 08:51:51;;;;;;;1.63;0.90;;;20.10;52.50;;;19.16;47.44;98525.81;5097121;27;20466;-78
2022/05/26 08:54:29;;;;;;;0.90;0.53;;;20.10;52.40;;;19.17;48.16;98530.22;5082379;28;20986;-86
2022/05/26 08:56:58;;;;;;;0.83;0.70;;;20.10;52.90;;;19.23;48.31;98531.94;5084742;28;20491;-72
2022/05/26 08:59:40;;;;;;;1.00;0.80;;;20.10;52.90;;;19.59;47.73;98523.19;5095338;28;20578;-77
2022/05/26 09:02:25;;;;;;;1.60;0.63;;;20.40;53.10;;;19.03;48.48;98518.03;5080091;28;20464;-82
2022/05/26 09:04:53;;;;;;;1.60;0.77;;;20.20;52.90;;;19.34;47.43;98532.03;5097816;28;20879;-76
2022/05/26 09:13:06;;;;;;;2.00;0.80;;;19.90;53.30;;;19.63;47.41;98537.16;5092647;27;20448;-75
2022/05/26 09:15:36;;;;;;;1.33;0.90;;;20.40;53.10;;;19.51;47.86;98540.09;5074373;28;20481;-72
2022/05/26 09:18:13;;;;;;;3.77;0.70;;;20.40;53.00;;;19.36;47.84;98535.34;5084202;28;20530;-77
2022/05/26 09:20:43;;;;;;;1.77;0.70;;;20.40;52.90;;;19.89;46.05;98527.25;5082090;28;20463;-72
2022/05/26 09:23:23;;;;;;;1.13;0.70;;;20.70;52.30;;;20.26;44.90;98541.16;5072091;28;20470;-73
2022/05/26 09:25:54;;;;;;;0.70;0.70;;;21.00;51.50;;;20.20;44.19;98538.41;5091695;27;20993;-73
2022/05/26 09:28:32;;;;;;;1.03;0.63;;;21.00;50.90;;;20.03;44.61;98541.31;5093062;28;20733;-74
2022/05/26 09:31:25;;;;;;;0.50;0.50;;;20.90;50.90;;;20.17;45.27;98551.81;5079557;28;20839;-75
2022/05/26 09:34:07;;;;;;;0.70;0.70;;;21.00;51.60;;;19.59;45.57;98534.16;5094305;28;20462;-73
2022/05/26 09:36:42;;;;;;;1.77;0.93;;;20.70;51.20;;;19.39;47.29;98535.63;5079637;28;20606;-74
2022/05/26 09:39:11;;;;;;;1.77;1.00;;;20.40;52.10;;;19.16;47.11;98536.78;5091874;28;20526;-74
2022/05/26 09:41:43;;;;;;;0.80;0.80;;;20.20;51.80;;;19.10;47.75;98548.78;5076778;28;20462;-74
2022/05/26 09:44:53;;;;;;;1.50;0.83;;;20.10;52.30;;;19.10;47.40;98546.84;5079473;28;20473;-73
2022/05/26 09:47:31;;;;;;;1.17;0.63;;;20.00;52.30;;;19.06;48.10;98548.47;5087996;28;20934;-78
2022/05/26 09:50:02;;;;;;;2.53;0.97;;;20.00;52.90;;;19.05;47.44;98554.22;5075009;28;20545;-73
2022/05/26 09:52:40;;;;;;;1.20;1.10;;;19.90;52.20;;;19.36;47.22;98551.78;5083869;28;20455;-77
2022/05/26 09:55:18;;;;;;;1.83;1.10;;;20.00;52.40;;;19.53;46.60;98554.34;5082248;28;20508;-75
2022/05/26 09:57:46;;;;;;;1.07;0.60;;;20.40;52.00;;;20.01;45.55;98554.47;5081183;28;20485;-79
2022/05/26 10:00:36;;;;;;;1.43;0.70;;;20.70;51.80;;;20.33;44.80;98552.75;5097277;28;20525;-74
2022/05/26 10:03:11;;;;;;;1.87;1.10;;;21.00;51.30;;;21.07;43.95;98555.50;5094705;27;20523;-72
2022/05/26 10:05:49;;;;;;;1.00;0.83;;;21.50;51.60;;;21.37;43.15;98562.94;5082213;28;20542;-73
2022/05/26 10:08:27;;;;;;;3.73;0.80;;;22.10;51.00;;;21.74;41.67;98558.31;5080590;28;20533;-71
2022/05/26 10:11:00;;;;;;;0.70;0.50;;;22.30;50.50;;;21.50;41.89;98550.59;5094261;28;20463;-73
2022/05/26 10:13:46;;;;;;;0.90;0.60;;;22.30;50.10;;;20.99;42.07;98556.00;5076797;28;20447;-71
2022/05/26 10:16:23;;;;;;;1.47;0.60;;;22.20;49.40;;;21.07;42.86;98555.50;5072605;28;20479;-73
2022/05/26 10:19:06;;;;;;;0.70;0.60;;;21.90;50.10;;;20.99;43.25;98553.28;5079293;28;20455;-72
2022/05/26 10:21:53;;;;;;;0.83;0.60;;;21.80;50.50;;;21.16;42.09;98553.88;5082870;28;20558;-71
2022/05/26 10:24:51;;;;;;;1.03;0.67;;;22.10;50.10;;;21.26;42.01;98557.72;5087307;28;20725;-73
2022/05/26 10:27:37;;;;;;;1.30;0.97;;;22.10;49.80;;;21.31;40.96;98555.81;5085524;28;21543;-73
2022/05/26 10:30:26;;;;;;;1.63;0.87;;;22.30;49.00;;;21.11;41.65;98569.53;5091800;28;20458;-72
2022/05/26 10:33:18;;;;;;;1.90;0.50;;;22.00;49.20;;;21.64;40.21;98569.31;5104446;28;20515;-73
2022/05/26 10:36:02;;;;;;;0.50;0.40;;;22.30;49.10;;;20.62;41.26;98566.88;5084640;28;20859;-73
2022/05/26 10:38:52;;;;;;;0.60;0.50;;;21.80;48.40;;;20.37;42.35;98560.16;5082706;28;20553;-72
2022/05/26 10:41:27;;;;;;;1.77;0.53;;;21.30;48.90;;;20.45;41.53;98558.00;5084994;28;20448;-72
2022/05/26 10:44:05;;;;;;;0.90;0.50;;;21.20;48.80;;;20.76;41.80;98558.94;5085737;28;20545;-72
2022/05/26 10:46:39;;;;;;;0.47;0.43;;;21.40;49.60;;;20.55;41.81;98551.75;5083956;28;20450;-72
2022/05/26 10:49:16;;;;;;;0.93;0.63;;;21.40;48.80;;;20.73;42.22;98540.25;5086449;28;20538;-74
2022/05/26 10:51:49;;;;;;;1.10;1.00;;;21.70;49.40;;;21.00;41.93;98549.41;5103215;28;20545;-72
2022/05/26 10:54:27;;;;;;;1.73;0.90;;;21.80;49.50;;;21.05;42.03;98568.69;5074990;28;20451;-73
2022/05/26 10:57:00;;;;;;;2.67;1.30;;;21.90;49.50;;;20.33;43.37;98553.56;5105724;28;20476;-72
2022/05/26 10:59:35;;;;;;;0.90;0.67;;;21.40;49.90;;;20.28;42.97;98548.06;5090804;28;20882;-73
2022/05/26 11:02:10;;;;;;;2.20;0.90;;;21.20;49.40;;;20.33;43.38;98559.03;5090881;28;20875;-72
2022/05/26 11:04:46;;;;;;;2.20;0.87;;;21.20;49.60;;;19.79;44.68;98552.66;5092376;28;21024;-73
2022/05/26 11:07:19;;;;;;;1.97;1.00;;;20.70;49.90;;;20.00;44.26;98550.09;5093265;28;20461;-72
2022/05/26 11:09:52;;;;;;;4.20;1.10;;;20.80;50.20;;;20.13;44.43;98551.53;5129942;27;20461;-71
2022/05/26 11:12:30;;;;;;;1.10;0.93;;;20.90;50.30;;;19.61;45.01;98564.00;5098165;28;20481;-71